sensor_id;sensor_type;location;lat;lon;timestamp;temperature;humidity
22526;DHT22;11429;50.842;4.386;2023-04-02T00:01:47;10.00;99.90
22526;DHT22;11429;50.842;4.386;2023-04-02T00:04:18;9.80;99.90
22526;DHT22;11429;50.842;4.386;2023-04-02T00:09:37;9.60;99.90
22526;DHT22;11429;50.842;4.386;2023-04-02T00:12:17;9.50;99.90
22526;DHT22;11429;50.842;4.386;2023-04-02T00:14:49;9.70;99.90
22526;DHT22;11429;50.842;4.386;2023-04-02T00:17:17;9.70;99.90
22526;DHT22;11429;50.842;4.386;2023-04-02T00:22:23;9.60;99.90
22526;DHT22;11429;50.842;4.386;2023-04-02T00:24:51;9.40;99.90
22526;DHT22;11429;50.842;4.386;2023-04-02T00:27:18;9.50;99.90
22526;DHT22;11429;50.842;4.386;2023-04-02T00:29:53;9.50;99.90
22526;DHT22;11429;50.842;4.386;2023-04-02T00:32:25;9.60;99.90
22526;DHT22;11429;50.842;4.386;2023-04-02T00:34:52;9.80;99.90
22526;DHT22;11429;50.842;4.386;2023-04-02T00:37:20;9.70;99.90
22526;DHT22;11429;50.842;4.386;2023-04-02T00:40:00;9.80;99.90
22526;DHT22;11429;50.842;4.386;2023-04-02T00:42:29;9.60;99.90
22526;DHT22;11429;50.842;4.386;2023-04-02T00:44:56;9.80;99.90
22526;DHT22;11429;50.842;4.386;2023-04-02T00:47:32;9.80;99.90
22526;DHT22;11429;50.842;4.386;2023-04-02T00:50:04;9.80;99.90
22526;DHT22;11429;50.842;4.386;2023-04-02T00:52:33;10.00;99.90
22526;DHT22;11429;50.842;4.386;2023-04-02T00:57:31;10.00;99.90
22526;DHT22;11429;50.842;4.386;2023-04-02T01:00:27;9.60;99.90
22526;DHT22;11429;50.842;4.386;2023-04-02T01:05:43;9.10;99.90
22526;DHT22;11429;50.842;4.386;2023-04-02T01:22:07;8.90;99.90
22526;DHT22;11429;50.842;4.386;2023-04-02T01:24:34;8.80;99.90
22526;DHT22;11429;50.842;4.386;2023-04-02T01:27:05;8.80;99.90
22526;DHT22;11429;50.842;4.386;2023-04-02T01:29:39;8.90;99.90
22526;DHT22;11429;50.842;4.386;2023-04-02T01:32:14;9.00;99.90
22526;DHT22;11429;50.842;4.386;2023-04-02T01:34:41;9.10;99.90
22526;DHT22;11429;50.842;4.386;2023-04-02T01:37:29;9.40;99.90
22526;DHT22;11429;50.842;4.386;2023-04-02T01:40:16;9.20;99.90
22526;DHT22;11429;50.842;4.386;2023-04-02T01:42:59;9.00;99.90
22526;DHT22;11429;50.842;4.386;2023-04-02T01:45:29;9.50;99.90
22526;DHT22;11429;50.842;4.386;2023-04-02T01:47:55;9.40;99.90
22526;DHT22;11429;50.842;4.386;2023-04-02T01:50:35;9.10;99.90
22526;DHT22;11429;50.842;4.386;2023-04-02T01:53:09;9.10;99.90
22526;DHT22;11429;50.842;4.386;2023-04-02T01:55:54;9.20;99.90
22526;DHT22;11429;50.842;4.386;2023-04-02T01:58:27;9.20;99.90
22526;DHT22;11429;50.842;4.386;2023-04-02T02:01:03;9.00;99.90
22526;DHT22;11429;50.842;4.386;2023-04-02T02:03:31;8.90;99.90
22526;DHT22;11429;50.842;4.386;2023-04-02T02:05:57;9.00;99.90
22526;DHT22;11429;50.842;4.386;2023-04-02T02:08:36;9.20;99.90
22526;DHT22;11429;50.842;4.386;2023-04-02T02:11:02;9.00;99.90
22526;DHT22;11429;50.842;4.386;2023-04-02T02:13:28;8.70;99.90
22526;DHT22;11429;50.842;4.386;2023-04-02T02:16:00;8.70;99.90
22526;DHT22;11429;50.842;4.386;2023-04-02T02:18:28;8.80;99.90
22526;DHT22;11429;50.842;4.386;2023-04-02T02:20:56;8.90;99.90
22526;DHT22;11429;50.842;4.386;2023-04-02T02:23:22;8.80;99.90
22526;DHT22;11429;50.842;4.386;2023-04-02T02:25:48;8.90;99.90
22526;DHT22;11429;50.842;4.386;2023-04-02T02:28:18;8.80;99.90
22526;DHT22;11429;50.842;4.386;2023-04-02T02:30:46;8.90;99.90
22526;DHT22;11429;50.842;4.386;2023-04-02T02:33:27;8.60;99.90
22526;DHT22;11429;50.842;4.386;2023-04-02T02:46:42;8.80;99.90
22526;DHT22;11429;50.842;4.386;2023-04-02T02:49:15;8.80;99.90
22526;DHT22;11429;50.842;4.386;2023-04-02T02:54:34;8.80;99.90
22526;DHT22;11429;50.842;4.386;2023-04-02T02:57:04;8.90;99.90
22526;DHT22;11429;50.842;4.386;2023-04-02T02:59:33;9.10;99.90
22526;DHT22;11429;50.842;4.386;2023-04-02T03:01:59;9.30;99.90
22526;DHT22;11429;50.842;4.386;2023-04-02T03:04:27;9.20;99.90
22526;DHT22;11429;50.842;4.386;2023-04-02T03:06:56;9.00;99.90
22526;DHT22;11429;50.842;4.386;2023-04-02T03:14:33;9.00;99.90
22526;DHT22;11429;50.842;4.386;2023-04-02T03:17:30;8.90;99.90
22526;DHT22;11429;50.842;4.386;2023-04-02T03:20:05;9.10;99.90
22526;DHT22;11429;50.842;4.386;2023-04-02T03:22:40;9.00;99.90
22526;DHT22;11429;50.842;4.386;2023-04-02T03:25:34;9.00;99.90
22526;DHT22;11429;50.842;4.386;2023-04-02T03:28:05;9.30;99.90
22526;DHT22;11429;50.842;4.386;2023-04-02T03:34:12;9.40;99.90
22526;DHT22;11429;50.842;4.386;2023-04-02T03:36:29;9.30;99.90
22526;DHT22;11429;50.842;4.386;2023-04-02T03:39:13;9.30;99.90
22526;DHT22;11429;50.842;4.386;2023-04-02T03:44:51;9.10;99.90
22526;DHT22;11429;50.842;4.386;2023-04-02T03:47:37;9.10;99.90
22526;DHT22;11429;50.842;4.386;2023-04-02T03:50:24;9.00;99.90
22526;DHT22;11429;50.842;4.386;2023-04-02T03:52:52;9.20;99.90
22526;DHT22;11429;50.842;4.386;2023-04-02T03:55:24;9.00;99.90
22526;DHT22;11429;50.842;4.386;2023-04-02T04:00:38;8.60;99.90
22526;DHT22;11429;50.842;4.386;2023-04-02T04:03:15;8.80;99.90
22526;DHT22;11429;50.842;4.386;2023-04-02T04:05:52;8.80;99.90
22526;DHT22;11429;50.842;4.386;2023-04-02T04:08:57;8.80;99.90
22526;DHT22;11429;50.842;4.386;2023-04-02T04:11:17;8.70;99.90
22526;DHT22;11429;50.842;4.386;2023-04-02T04:13:58;8.80;99.90
22526;DHT22;11429;50.842;4.386;2023-04-02T04:16:30;8.90;99.90
22526;DHT22;11429;50.842;4.386;2023-04-02T04:19:30;8.80;99.90
22526;DHT22;11429;50.842;4.386;2023-04-02T04:22:18;8.60;99.90
22526;DHT22;11429;50.842;4.386;2023-04-02T04:25:05;8.90;99.90
22526;DHT22;11429;50.842;4.386;2023-04-02T04:30:59;8.80;99.90
22526;DHT22;11429;50.842;4.386;2023-04-02T04:33:47;8.70;99.90
22526;DHT22;11429;50.842;4.386;2023-04-02T04:36:39;8.60;99.90
22526;DHT22;11429;50.842;4.386;2023-04-02T04:39:11;8.60;99.90
22526;DHT22;11429;50.842;4.386;2023-04-02T04:41:41;8.40;99.90
22526;DHT22;11429;50.842;4.386;2023-04-02T04:49:47;8.70;99.90
22526;DHT22;11429;50.842;4.386;2023-04-02T04:55:36;8.50;99.90
22526;DHT22;11429;50.842;4.386;2023-04-02T04:58:31;8.40;99.90
22526;DHT22;11429;50.842;4.386;2023-04-02T05:03:57;8.50;99.90
22526;DHT22;11429;50.842;4.386;2023-04-02T05:06:34;8.50;99.90
22526;DHT22;11429;50.842;4.386;2023-04-02T05:09:29;8.40;99.90
22526;DHT22;11429;50.842;4.386;2023-04-02T05:15:40;8.40;99.90
22526;DHT22;11429;50.842;4.386;2023-04-02T05:23:28;8.20;99.90
22526;DHT22;11429;50.842;4.386;2023-04-02T05:26:14;8.30;99.90
22526;DHT22;11429;50.842;4.386;2023-04-02T05:31:21;8.30;99.90
22526;DHT22;11429;50.842;4.386;2023-04-02T05:33:50;8.40;99.90
22526;DHT22;11429;50.842;4.386;2023-04-02T05:36:27;8.30;99.90
22526;DHT22;11429;50.842;4.386;2023-04-02T05:38:55;8.20;99.90
22526;DHT22;11429;50.842;4.386;2023-04-02T05:41:42;8.20;99.90
22526;DHT22;11429;50.842;4.386;2023-04-02T05:46:53;8.00;99.90
22526;DHT22;11429;50.842;4.386;2023-04-02T05:49:51;7.90;99.90
22526;DHT22;11429;50.842;4.386;2023-04-02T05:52:26;7.90;99.90
22526;DHT22;11429;50.842;4.386;2023-04-02T05:55:03;7.90;99.90
22526;DHT22;11429;50.842;4.386;2023-04-02T05:57:37;7.70;99.90
22526;DHT22;11429;50.842;4.386;2023-04-02T06:00:07;7.90;99.90
22526;DHT22;11429;50.842;4.386;2023-04-02T06:02:43;8.00;99.90
22526;DHT22;11429;50.842;4.386;2023-04-02T06:05:20;8.10;99.90
22526;DHT22;11429;50.842;4.386;2023-04-02T06:07:57;8.10;99.90
22526;DHT22;11429;50.842;4.386;2023-04-02T06:10:28;8.20;99.90
22526;DHT22;11429;50.842;4.386;2023-04-02T06:12:58;8.10;99.90
22526;DHT22;11429;50.842;4.386;2023-04-02T06:15:29;8.10;99.90
22526;DHT22;11429;50.842;4.386;2023-04-02T06:18:04;8.20;99.90
22526;DHT22;11429;50.842;4.386;2023-04-02T06:20:30;8.00;99.90
22526;DHT22;11429;50.842;4.386;2023-04-02T06:25:40;8.10;99.90
22526;DHT22;11429;50.842;4.386;2023-04-02T06:28:17;8.10;99.90
22526;DHT22;11429;50.842;4.386;2023-04-02T06:30:44;8.00;99.90
22526;DHT22;11429;50.842;4.386;2023-04-02T06:33:12;8.10;99.90
22526;DHT22;11429;50.842;4.386;2023-04-02T06:35:42;8.10;99.90
22526;DHT22;11429;50.842;4.386;2023-04-02T06:38:16;8.00;99.90
22526;DHT22;11429;50.842;4.386;2023-04-02T06:40:49;8.00;99.90
22526;DHT22;11429;50.842;4.386;2023-04-02T06:43:25;8.10;99.90
22526;DHT22;11429;50.842;4.386;2023-04-02T06:46:00;8.00;99.90
22526;DHT22;11429;50.842;4.386;2023-04-02T06:48:28;8.00;99.90
22526;DHT22;11429;50.842;4.386;2023-04-02T06:51:03;8.00;99.90
22526;DHT22;11429;50.842;4.386;2023-04-02T06:53:32;8.00;99.90
22526;DHT22;11429;50.842;4.386;2023-04-02T06:56:19;8.00;99.90
22526;DHT22;11429;50.842;4.386;2023-04-02T06:58:46;8.10;99.90
22526;DHT22;11429;50.842;4.386;2023-04-02T07:01:18;8.00;99.90
22526;DHT22;11429;50.842;4.386;2023-04-02T07:03:46;8.20;99.90
22526;DHT22;11429;50.842;4.386;2023-04-02T07:06:17;8.20;99.90
22526;DHT22;11429;50.842;4.386;2023-04-02T07:08:44;8.20;99.90
22526;DHT22;11429;50.842;4.386;2023-04-02T07:11:15;8.10;99.90
22526;DHT22;11429;50.842;4.386;2023-04-02T07:13:42;8.20;99.90
22526;DHT22;11429;50.842;4.386;2023-04-02T07:16:20;8.00;99.90
22526;DHT22;11429;50.842;4.386;2023-04-02T07:18:47;8.00;99.90
22526;DHT22;11429;50.842;4.386;2023-04-02T07:21:13;8.10;99.90
22526;DHT22;11429;50.842;4.386;2023-04-02T07:23:39;8.10;99.90
22526;DHT22;11429;50.842;4.386;2023-04-02T07:26:06;8.00;99.90
22526;DHT22;11429;50.842;4.386;2023-04-02T07:28:33;7.90;99.90
22526;DHT22;11429;50.842;4.386;2023-04-02T07:30:59;7.80;99.90
22526;DHT22;11429;50.842;4.386;2023-04-02T07:33:28;7.90;99.90
22526;DHT22;11429;50.842;4.386;2023-04-02T07:35:56;7.90;99.90
22526;DHT22;11429;50.842;4.386;2023-04-02T07:38:23;7.90;99.90
22526;DHT22;11429;50.842;4.386;2023-04-02T07:40:49;8.00;99.90
22526;DHT22;11429;50.842;4.386;2023-04-02T07:43:15;7.90;99.90
22526;DHT22;11429;50.842;4.386;2023-04-02T07:45:40;7.80;99.90
22526;DHT22;11429;50.842;4.386;2023-04-02T07:48:13;7.70;99.90
22526;DHT22;11429;50.842;4.386;2023-04-02T07:50:39;7.70;99.90
22526;DHT22;11429;50.842;4.386;2023-04-02T07:53:05;7.60;99.90
22526;DHT22;11429;50.842;4.386;2023-04-02T07:55:31;7.60;99.90
22526;DHT22;11429;50.842;4.386;2023-04-02T07:57:58;7.50;99.90
22526;DHT22;11429;50.842;4.386;2023-04-02T08:00:25;7.50;99.90
22526;DHT22;11429;50.842;4.386;2023-04-02T08:02:51;7.40;99.90
22526;DHT22;11429;50.842;4.386;2023-04-02T08:05:17;7.60;99.90
22526;DHT22;11429;50.842;4.386;2023-04-02T08:07:51;7.60;99.90
22526;DHT22;11429;50.842;4.386;2023-04-02T08:10:16;7.60;99.90
22526;DHT22;11429;50.842;4.386;2023-04-02T08:12:43;7.60;99.90
22526;DHT22;11429;50.842;4.386;2023-04-02T08:15:13;7.60;99.90
22526;DHT22;11429;50.842;4.386;2023-04-02T08:17:39;7.60;99.90
22526;DHT22;11429;50.842;4.386;2023-04-02T08:20:05;7.70;99.90
22526;DHT22;11429;50.842;4.386;2023-04-02T08:22:32;7.80;99.90
22526;DHT22;11429;50.842;4.386;2023-04-02T08:24:58;7.90;99.90
22526;DHT22;11429;50.842;4.386;2023-04-02T08:27:24;8.00;99.90
22526;DHT22;11429;50.842;4.386;2023-04-02T08:29:50;7.90;99.90
22526;DHT22;11429;50.842;4.386;2023-04-02T08:32:16;8.00;99.90
22526;DHT22;11429;50.842;4.386;2023-04-02T08:34:43;7.90;99.90
22526;DHT22;11429;50.842;4.386;2023-04-02T08:37:12;8.00;99.90
22526;DHT22;11429;50.842;4.386;2023-04-02T08:39:39;7.90;99.90
22526;DHT22;11429;50.842;4.386;2023-04-02T08:47:33;7.60;99.90
22526;DHT22;11429;50.842;4.386;2023-04-02T08:52:50;7.70;99.90
22526;DHT22;11429;50.842;4.386;2023-04-02T08:55:40;7.80;99.90
22526;DHT22;11429;50.842;4.386;2023-04-02T08:58:28;7.70;99.90
22526;DHT22;11429;50.842;4.386;2023-04-02T09:00:59;7.70;99.90
22526;DHT22;11429;50.842;4.386;2023-04-02T09:03:29;7.70;99.90
22526;DHT22;11429;50.842;4.386;2023-04-02T09:05:58;7.70;99.90
22526;DHT22;11429;50.842;4.386;2023-04-02T09:08:26;7.70;99.90
22526;DHT22;11429;50.842;4.386;2023-04-02T09:13:28;7.60;99.90
22526;DHT22;11429;50.842;4.386;2023-04-02T09:16:01;7.60;99.90
22526;DHT22;11429;50.842;4.386;2023-04-02T09:18:31;7.70;99.90
22526;DHT22;11429;50.842;4.386;2023-04-02T09:20:57;7.50;99.90
22526;DHT22;11429;50.842;4.386;2023-04-02T09:23:24;7.50;99.90
22526;DHT22;11429;50.842;4.386;2023-04-02T09:25:52;7.70;99.90
22526;DHT22;11429;50.842;4.386;2023-04-02T09:28:19;7.70;99.90
22526;DHT22;11429;50.842;4.386;2023-04-02T09:31:07;7.70;99.90
22526;DHT22;11429;50.842;4.386;2023-04-02T09:33:41;7.70;99.90
22526;DHT22;11429;50.842;4.386;2023-04-02T09:36:36;7.80;99.90
22526;DHT22;11429;50.842;4.386;2023-04-02T09:39:18;7.80;99.90
22526;DHT22;11429;50.842;4.386;2023-04-02T09:41:45;7.90;99.90
22526;DHT22;11429;50.842;4.386;2023-04-02T09:44:25;8.00;99.90
22526;DHT22;11429;50.842;4.386;2023-04-02T09:46:55;7.90;99.90
22526;DHT22;11429;50.842;4.386;2023-04-02T09:49:32;7.90;99.90
22526;DHT22;11429;50.842;4.386;2023-04-02T09:52:18;7.90;99.90
22526;DHT22;11429;50.842;4.386;2023-04-02T09:57:31;7.90;99.90
22526;DHT22;11429;50.842;4.386;2023-04-02T10:00:15;7.60;99.90
22526;DHT22;11429;50.842;4.386;2023-04-02T10:02:42;7.70;99.90
22526;DHT22;11429;50.842;4.386;2023-04-02T10:05:18;7.70;99.90
22526;DHT22;11429;50.842;4.386;2023-04-02T10:07:49;7.80;99.90
22526;DHT22;11429;50.842;4.386;2023-04-02T10:10:34;7.90;99.90
22526;DHT22;11429;50.842;4.386;2023-04-02T10:15:37;7.50;99.90
22526;DHT22;11429;50.842;4.386;2023-04-02T10:18:12;7.50;99.90
22526;DHT22;11429;50.842;4.386;2023-04-02T10:20:45;7.50;99.90
22526;DHT22;11429;50.842;4.386;2023-04-02T10:23:16;7.50;99.90
22526;DHT22;11429;50.842;4.386;2023-04-02T10:26:34;7.70;99.90
22526;DHT22;11429;50.842;4.386;2023-04-02T10:31:07;7.90;99.90
22526;DHT22;11429;50.842;4.386;2023-04-02T10:33:39;8.00;99.90
22526;DHT22;11429;50.842;4.386;2023-04-02T10:36:22;8.10;99.90
22526;DHT22;11429;50.842;4.386;2023-04-02T10:39:01;7.90;99.90
22526;DHT22;11429;50.842;4.386;2023-04-02T10:50:24;7.90;99.90
22526;DHT22;11429;50.842;4.386;2023-04-02T10:53:06;7.80;99.90
22526;DHT22;11429;50.842;4.386;2023-04-02T10:55:38;8.00;99.90
22526;DHT22;11429;50.842;4.386;2023-04-02T10:58:22;8.00;99.90
22526;DHT22;11429;50.842;4.386;2023-04-02T11:00:54;8.00;99.90
22526;DHT22;11429;50.842;4.386;2023-04-02T11:03:33;7.90;99.90
22526;DHT22;11429;50.842;4.386;2023-04-02T11:06:21;8.00;99.90
22526;DHT22;11429;50.842;4.386;2023-04-02T11:08:54;7.90;99.90
22526;DHT22;11429;50.842;4.386;2023-04-02T11:11:26;8.20;99.90
22526;DHT22;11429;50.842;4.386;2023-04-02T11:16:30;8.50;99.90
22526;DHT22;11429;50.842;4.386;2023-04-02T11:22:17;9.20;99.90
22526;DHT22;11429;50.842;4.386;2023-04-02T11:24:50;9.40;99.90
22526;DHT22;11429;50.842;4.386;2023-04-02T11:27:28;9.10;99.90
22526;DHT22;11429;50.842;4.386;2023-04-02T11:32:41;9.00;99.90
22526;DHT22;11429;50.842;4.386;2023-04-02T11:48:45;8.30;99.90
22526;DHT22;11429;50.842;4.386;2023-04-02T11:54:25;8.10;99.90
22526;DHT22;11429;50.842;4.386;2023-04-02T11:57:14;8.30;99.90
22526;DHT22;11429;50.842;4.386;2023-04-02T12:00:25;8.20;99.90
22526;DHT22;11429;50.842;4.386;2023-04-02T12:03:32;8.30;99.90
22526;DHT22;11429;50.842;4.386;2023-04-02T12:06:17;8.30;99.90
22526;DHT22;11429;50.842;4.386;2023-04-02T12:11:29;8.60;99.90
22526;DHT22;11429;50.842;4.386;2023-04-02T12:13:57;8.60;99.90
22526;DHT22;11429;50.842;4.386;2023-04-02T12:16:24;8.50;99.90
22526;DHT22;11429;50.842;4.386;2023-04-02T12:18:56;8.50;99.90
22526;DHT22;11429;50.842;4.386;2023-04-02T12:21:25;8.30;99.90
22526;DHT22;11429;50.842;4.386;2023-04-02T12:23:54;8.30;99.90
22526;DHT22;11429;50.842;4.386;2023-04-02T12:26:34;8.40;99.90
22526;DHT22;11429;50.842;4.386;2023-04-02T12:29:26;8.60;99.90
22526;DHT22;11429;50.842;4.386;2023-04-02T12:31:54;8.80;99.90
22526;DHT22;11429;50.842;4.386;2023-04-02T12:34:23;8.70;99.90
22526;DHT22;11429;50.842;4.386;2023-04-02T12:37:01;8.50;99.90
22526;DHT22;11429;50.842;4.386;2023-04-02T12:39:29;8.40;99.90
22526;DHT22;11429;50.842;4.386;2023-04-02T12:41:55;8.50;99.90
22526;DHT22;11429;50.842;4.386;2023-04-02T12:44:25;8.70;99.90
22526;DHT22;11429;50.842;4.386;2023-04-02T12:46:51;8.90;99.90
22526;DHT22;11429;50.842;4.386;2023-04-02T12:51:46;8.70;99.90
22526;DHT22;11429;50.842;4.386;2023-04-02T12:54:16;8.80;99.90
22526;DHT22;11429;50.842;4.386;2023-04-02T12:56:43;8.70;99.90
22526;DHT22;11429;50.842;4.386;2023-04-02T12:59:37;8.90;99.90
22526;DHT22;11429;50.842;4.386;2023-04-02T13:02:20;8.90;99.90
22526;DHT22;11429;50.842;4.386;2023-04-02T13:04:54;8.80;99.90
22526;DHT22;11429;50.842;4.386;2023-04-02T13:07:23;8.70;99.90
22526;DHT22;11429;50.842;4.386;2023-04-02T13:09:58;8.70;99.90
22526;DHT22;11429;50.842;4.386;2023-04-02T13:12:38;8.70;99.90
22526;DHT22;11429;50.842;4.386;2023-04-02T13:15:20;8.50;99.90
22526;DHT22;11429;50.842;4.386;2023-04-02T13:18:00;8.60;99.90
22526;DHT22;11429;50.842;4.386;2023-04-02T13:20:52;8.90;99.90
22526;DHT22;11429;50.842;4.386;2023-04-02T13:23:29;9.00;99.90
22526;DHT22;11429;50.842;4.386;2023-04-02T13:28:41;8.90;99.90
22526;DHT22;11429;50.842;4.386;2023-04-02T13:31:14;8.80;99.90
22526;DHT22;11429;50.842;4.386;2023-04-02T13:33:43;8.70;99.90
22526;DHT22;11429;50.842;4.386;2023-04-02T13:36:13;8.70;99.90
22526;DHT22;11429;50.842;4.386;2023-04-02T13:38:41;8.90;99.90
22526;DHT22;11429;50.842;4.386;2023-04-02T13:41:46;9.10;99.90
22526;DHT22;11429;50.842;4.386;2023-04-02T13:44:27;8.70;99.90
22526;DHT22;11429;50.842;4.386;2023-04-02T13:46:54;8.70;99.90
22526;DHT22;11429;50.842;4.386;2023-04-02T13:49:24;8.80;99.90
22526;DHT22;11429;50.842;4.386;2023-04-02T13:51:58;9.10;99.90
22526;DHT22;11429;50.842;4.386;2023-04-02T13:54:41;9.30;99.90
22526;DHT22;11429;50.842;4.386;2023-04-02T13:57:07;9.20;99.90
22526;DHT22;11429;50.842;4.386;2023-04-02T13:59:34;9.10;99.90
22526;DHT22;11429;50.842;4.386;2023-04-02T14:02:04;8.90;99.90
22526;DHT22;11429;50.842;4.386;2023-04-02T14:04:36;8.80;99.90
22526;DHT22;11429;50.842;4.386;2023-04-02T14:07:23;8.70;99.90
22526;DHT22;11429;50.842;4.386;2023-04-02T14:10:17;8.70;99.90
22526;DHT22;11429;50.842;4.386;2023-04-02T14:15:38;8.20;99.90
22526;DHT22;11429;50.842;4.386;2023-04-02T14:23:36;8.30;99.90
22526;DHT22;11429;50.842;4.386;2023-04-02T14:29:32;8.30;99.90
22526;DHT22;11429;50.842;4.386;2023-04-02T14:43:04;8.30;99.90
22526;DHT22;11429;50.842;4.386;2023-04-02T14:48:26;8.60;99.90
22526;DHT22;11429;50.842;4.386;2023-04-02T14:51:35;8.50;99.90
22526;DHT22;11429;50.842;4.386;2023-04-02T14:57:14;8.50;99.90
22526;DHT22;11429;50.842;4.386;2023-04-02T15:02:48;8.60;99.90
22526;DHT22;11429;50.842;4.386;2023-04-02T15:05:43;8.80;99.90
22526;DHT22;11429;50.842;4.386;2023-04-02T15:11:05;8.50;99.90
22526;DHT22;11429;50.842;4.386;2023-04-02T15:13:36;8.40;99.90
22526;DHT22;11429;50.842;4.386;2023-04-02T15:16:13;8.50;99.90
22526;DHT22;11429;50.842;4.386;2023-04-02T15:18:40;8.50;99.90
22526;DHT22;11429;50.842;4.386;2023-04-02T15:26:47;8.60;99.90
22526;DHT22;11429;50.842;4.386;2023-04-02T15:38:21;8.90;99.90
22526;DHT22;11429;50.842;4.386;2023-04-02T15:41:09;8.90;99.90
22526;DHT22;11429;50.842;4.386;2023-04-02T15:44:02;8.60;99.90
22526;DHT22;11429;50.842;4.386;2023-04-02T15:49:59;8.30;99.90
22526;DHT22;11429;50.842;4.386;2023-04-02T15:53:15;8.40;99.90
22526;DHT22;11429;50.842;4.386;2023-04-02T15:55:43;8.20;99.90
22526;DHT22;11429;50.842;4.386;2023-04-02T16:01:44;8.70;99.90
22526;DHT22;11429;50.842;4.386;2023-04-02T16:04:28;8.90;99.90
22526;DHT22;11429;50.842;4.386;2023-04-02T16:07:18;9.00;99.90
22526;DHT22;11429;50.842;4.386;2023-04-02T16:12:32;8.40;99.90
22526;DHT22;11429;50.842;4.386;2023-04-02T16:15:13;8.50;99.90
22526;DHT22;11429;50.842;4.386;2023-04-02T16:17:46;8.50;99.90
22526;DHT22;11429;50.842;4.386;2023-04-02T16:22:46;8.80;99.90
22526;DHT22;11429;50.842;4.386;2023-04-02T16:25:15;8.80;99.90
22526;DHT22;11429;50.842;4.386;2023-04-02T16:27:52;8.60;99.90
22526;DHT22;11429;50.842;4.386;2023-04-02T16:36:26;8.50;99.90
22526;DHT22;11429;50.842;4.386;2023-04-02T16:39:00;8.40;99.90
22526;DHT22;11429;50.842;4.386;2023-04-02T16:51:56;8.50;99.90
22526;DHT22;11429;50.842;4.386;2023-04-02T17:00:41;8.40;99.90
22526;DHT22;11429;50.842;4.386;2023-04-02T17:06:05;8.50;99.90
22526;DHT22;11429;50.842;4.386;2023-04-02T17:08:46;8.40;99.90
22526;DHT22;11429;50.842;4.386;2023-04-02T17:11:40;8.30;99.90
22526;DHT22;11429;50.842;4.386;2023-04-02T17:17:00;8.20;99.90
22526;DHT22;11429;50.842;4.386;2023-04-02T17:19:28;8.20;99.90
22526;DHT22;11429;50.842;4.386;2023-04-02T17:22:00;8.10;99.90
22526;DHT22;11429;50.842;4.386;2023-04-02T17:24:30;8.20;99.90
22526;DHT22;11429;50.842;4.386;2023-04-02T17:27:02;8.10;99.90
22526;DHT22;11429;50.842;4.386;2023-04-02T17:29:35;8.00;99.90
22526;DHT22;11429;50.842;4.386;2023-04-02T17:32:09;7.80;99.90
22526;DHT22;11429;50.842;4.386;2023-04-02T17:34:36;8.00;99.90
22526;DHT22;11429;50.842;4.386;2023-04-02T17:37:42;8.20;99.90
22526;DHT22;11429;50.842;4.386;2023-04-02T17:40:33;8.00;99.90
22526;DHT22;11429;50.842;4.386;2023-04-02T17:43:28;8.20;99.90
22526;DHT22;11429;50.842;4.386;2023-04-02T17:45:55;8.00;99.90
22526;DHT22;11429;50.842;4.386;2023-04-02T17:48:46;7.90;99.90
22526;DHT22;11429;50.842;4.386;2023-04-02T17:51:34;7.80;99.90
22526;DHT22;11429;50.842;4.386;2023-04-02T18:24:19;7.60;99.90
22526;DHT22;11429;50.842;4.386;2023-04-02T18:29:27;7.90;99.90
22526;DHT22;11429;50.842;4.386;2023-04-02T18:35:19;7.70;99.90
22526;DHT22;11429;50.842;4.386;2023-04-02T18:40:47;7.80;99.90
22526;DHT22;11429;50.842;4.386;2023-04-02T18:43:37;7.50;99.90
22526;DHT22;11429;50.842;4.386;2023-04-02T18:46:29;7.10;99.90
22526;DHT22;11429;50.842;4.386;2023-04-02T18:49:18;6.90;99.90
22526;DHT22;11429;50.842;4.386;2023-04-02T18:51:47;7.00;99.90
22526;DHT22;11429;50.842;4.386;2023-04-02T18:56:43;7.70;99.90
22526;DHT22;11429;50.842;4.386;2023-04-02T18:59:33;7.70;99.90
22526;DHT22;11429;50.842;4.386;2023-04-02T19:05:07;7.80;99.90
22526;DHT22;11429;50.842;4.386;2023-04-02T19:07:37;8.00;99.90
22526;DHT22;11429;50.842;4.386;2023-04-02T19:10:38;7.80;99.90
22526;DHT22;11429;50.842;4.386;2023-04-02T19:13:12;7.90;99.90
22526;DHT22;11429;50.842;4.386;2023-04-02T19:18:16;7.60;99.90
22526;DHT22;11429;50.842;4.386;2023-04-02T19:20:53;7.70;99.90
22526;DHT22;11429;50.842;4.386;2023-04-02T19:26:12;8.00;99.90
22526;DHT22;11429;50.842;4.386;2023-04-02T19:29:05;7.70;99.90
22526;DHT22;11429;50.842;4.386;2023-04-02T19:31:58;7.60;99.90
22526;DHT22;11429;50.842;4.386;2023-04-02T19:34:35;7.90;99.90
22526;DHT22;11429;50.842;4.386;2023-04-02T19:37:17;7.90;99.90
22526;DHT22;11429;50.842;4.386;2023-04-02T19:45:26;7.90;99.90
22526;DHT22;11429;50.842;4.386;2023-04-02T19:47:54;8.00;99.90
22526;DHT22;11429;50.842;4.386;2023-04-02T19:50:21;8.00;99.90
22526;DHT22;11429;50.842;4.386;2023-04-02T19:52:47;8.20;99.90
22526;DHT22;11429;50.842;4.386;2023-04-02T19:55:12;7.90;99.90
22526;DHT22;11429;50.842;4.386;2023-04-02T19:57:38;8.00;99.90
22526;DHT22;11429;50.842;4.386;2023-04-02T20:00:04;8.10;99.90
22526;DHT22;11429;50.842;4.386;2023-04-02T20:02:33;8.20;99.90
22526;DHT22;11429;50.842;4.386;2023-04-02T20:04:59;8.00;99.90
22526;DHT22;11429;50.842;4.386;2023-04-02T20:07:25;7.80;99.90
22526;DHT22;11429;50.842;4.386;2023-04-02T20:09:52;7.60;99.90
22526;DHT22;11429;50.842;4.386;2023-04-02T20:12:18;7.60;99.90
22526;DHT22;11429;50.842;4.386;2023-04-02T20:14:48;7.80;99.90
22526;DHT22;11429;50.842;4.386;2023-04-02T20:17:14;7.90;99.90
22526;DHT22;11429;50.842;4.386;2023-04-02T20:19:40;8.20;99.90
22526;DHT22;11429;50.842;4.386;2023-04-02T20:22:06;8.10;99.90
22526;DHT22;11429;50.842;4.386;2023-04-02T20:24:32;7.80;99.90
22526;DHT22;11429;50.842;4.386;2023-04-02T20:26:57;8.10;99.90
22526;DHT22;11429;50.842;4.386;2023-04-02T20:29:23;8.40;99.90
22526;DHT22;11429;50.842;4.386;2023-04-02T20:31:52;8.00;99.90
22526;DHT22;11429;50.842;4.386;2023-04-02T20:34:18;8.00;99.90
22526;DHT22;11429;50.842;4.386;2023-04-02T20:36:44;8.20;99.90
22526;DHT22;11429;50.842;4.386;2023-04-02T20:39:10;8.10;99.90
22526;DHT22;11429;50.842;4.386;2023-04-02T20:41:42;8.00;99.90
22526;DHT22;11429;50.842;4.386;2023-04-02T20:44:07;8.20;99.90
22526;DHT22;11429;50.842;4.386;2023-04-02T20:46:33;8.20;99.90
22526;DHT22;11429;50.842;4.386;2023-04-02T20:48:59;8.10;99.90
22526;DHT22;11429;50.842;4.386;2023-04-02T20:51:26;8.40;99.90
22526;DHT22;11429;50.842;4.386;2023-04-02T20:53:53;8.60;99.90
22526;DHT22;11429;50.842;4.386;2023-04-02T20:56:19;8.50;99.90
22526;DHT22;11429;50.842;4.386;2023-04-02T20:58:47;8.50;99.90
22526;DHT22;11429;50.842;4.386;2023-04-02T21:01:18;8.40;99.90
22526;DHT22;11429;50.842;4.386;2023-04-02T21:03:44;8.30;99.90
22526;DHT22;11429;50.842;4.386;2023-04-02T21:06:18;8.40;99.90
22526;DHT22;11429;50.842;4.386;2023-04-02T21:08:44;8.40;99.90
22526;DHT22;11429;50.842;4.386;2023-04-02T21:11:10;8.20;99.90
22526;DHT22;11429;50.842;4.386;2023-04-02T21:13:36;8.00;99.90
22526;DHT22;11429;50.842;4.386;2023-04-02T21:16:04;7.90;99.90
22526;DHT22;11429;50.842;4.386;2023-04-02T21:18:30;7.60;99.90